Time;durP1;ratioP1;P1;durP2;ratioP2;P2;SDS_P1;SDS_P2;PMS_P1;PMS_P2;Temp;Humidity;BMP_temperature;BMP_pressure;BME280_temperature;BME280_humidity;BME280_pressure;Samples;Min_cycle;Max_cycle;Signal;HPM_P1;HPM_P2
2022/01/17 00:01:06;;;;;;;21.38;10.65;;;;;;;;;;5005361;28;20387;-76
2022/01/17 00:03:32;;;;;;;22.85;12.38;;;;;;;;;;5005902;28;20029;-75
2022/01/17 00:05:58;;;;;;;23.58;11.63;;;;;;;;;;5006201;28;20045;-74
2022/01/17 00:08:24;;;;;;;20.35;10.68;;;;;;;;;;5004219;28;20042;-76
2022/01/17 00:10:50;;;;;;;22.35;11.52;;;;;;;;;;4998475;28;20452;-76
2022/01/17 00:13:24;;;;;;;21.73;11.40;;;;;;;;;;4982439;28;20053;-74
2022/01/17 00:15:56;;;;;;;21.65;10.93;;;;;;;;;;4964790;28;20721;-74
2022/01/17 00:18:51;;;;;;;24.27;12.20;;;;;;;;;;4972144;28;20038;-75
2022/01/17 00:21:08;;;;;;;22.65;11.70;;;;;;;;;;4983969;28;20045;-76
2022/01/17 00:23:34;;;;;;;25.90;12.80;;;;;;;;;;4979425;28;20499;-76
2022/01/17 00:26:00;;;;;;;24.60;12.02;;;;;;;;;;4985552;28;20046;-76
2022/01/17 00:28:26;;;;;;;23.33;12.00;;;;;;;;;;4978091;28;20039;-75
2022/01/17 00:30:52;;;;;;;21.90;11.75;;;;;;;;;;4983637;28;20037;-75
2022/01/17 00:33:18;;;;;;;21.92;11.40;;;;;;;;;;4982580;28;20499;-75
2022/01/17 00:35:44;;;;;;;25.83;12.68;;;;;;;;;;4976049;28;20046;-75
2022/01/17 00:38:12;;;;;;;23.08;12.18;;;;;;;;;;4978999;28;20070;-76
2022/01/17 00:40:42;;;;;;;22.00;11.63;;;;;;;;;;4946356;28;20048;-75
2022/01/17 00:43:09;;;;;;;23.20;11.68;;;;;;;;;;4980864;28;20054;-75
2022/01/17 00:45:37;;;;;;;22.17;11.30;;;;;;;;;;4980185;28;20958;-75
2022/01/17 00:48:03;;;;;;;23.05;12.75;;;;;;;;;;4968958;28;20054;-76
2022/01/17 00:50:31;;;;;;;21.80;12.00;;;;;;;;;;4955381;28;20187;-75
2022/01/17 00:53:03;;;;;;;23.60;12.20;;;;;;;;;;4963727;28;20544;-75
2022/01/17 00:55:34;;;;;;;22.73;10.85;;;;;;;;;;4962719;28;20050;-75
2022/01/17 00:58:00;;;;;;;21.13;10.93;;;;;;;;;;4972591;28;20046;-75
2022/01/17 01:00:25;;;;;;;23.38;10.90;;;;;;;;;;4964200;28;20039;-75
2022/01/17 01:02:52;;;;;;;21.55;10.52;;;;;;;;;;4963735;28;20046;-76
2022/01/17 01:05:19;;;;;;;22.60;11.00;;;;;;;;;;4964015;28;20565;-75
2022/01/17 01:07:45;;;;;;;22.15;11.85;;;;;;;;;;4964272;28;20083;-75
2022/01/17 01:10:12;;;;;;;21.67;11.93;;;;;;;;;;4963924;28;20397;-76
2022/01/17 01:12:43;;;;;;;21.77;11.15;;;;;;;;;;4963474;28;20544;-76
2022/01/17 01:15:14;;;;;;;20.80;11.10;;;;;;;;;;4964109;28;20578;-75
2022/01/17 01:17:56;;;;;;;21.23;10.68;;;;;;;;;;4965348;28;20046;-76
2022/01/17 01:21:02;;;;;;;20.52;10.82;;;;;;;;;;4965396;28;20030;-75
2022/01/17 01:28:49;;;;;;;19.02;10.50;;;;;;;;;;4965539;28;20051;-75
2022/01/17 01:31:21;;;;;;;20.23;9.88;;;;;;;;;;4964148;28;20548;-75
2022/01/17 01:33:54;;;;;;;17.88;10.18;;;;;;;;;;4964062;28;20023;-76
2022/01/17 01:36:26;;;;;;;20.65;11.25;;;;;;;;;;4963326;28;20057;-75
2022/01/17 01:38:52;;;;;;;19.25;10.70;;;;;;;;;;4963848;28;20393;-75
2022/01/17 01:41:20;;;;;;;22.42;9.90;;;;;;;;;;4967032;28;20130;-75
2022/01/17 01:43:46;;;;;;;21.95;10.23;;;;;;;;;;4967238;28;20046;-75
2022/01/17 01:46:17;;;;;;;17.80;9.85;;;;;;;;;;4967664;28;20248;-75
2022/01/17 01:48:43;;;;;;;19.95;9.82;;;;;;;;;;4967627;28;20038;-75
2022/01/17 01:51:09;;;;;;;18.80;10.10;;;;;;;;;;4962101;28;20123;-75
2022/01/17 01:53:36;;;;;;;18.77;10.02;;;;;;;;;;4965941;28;20383;-75
2022/01/17 01:56:03;;;;;;;19.52;10.73;;;;;;;;;;4964541;28;20481;-76
2022/01/17 01:58:28;;;;;;;19.45;9.40;;;;;;;;;;4964826;28;20031;-75
2022/01/17 02:00:55;;;;;;;22.40;9.95;;;;;;;;;;4951030;28;20047;-76
2022/01/17 02:03:22;;;;;;;18.77;10.15;;;;;;;;;;4965291;28;20066;-76
2022/01/17 02:05:48;;;;;;;17.27;9.20;;;;;;;;;;4966579;28;20026;-75
2022/01/17 02:08:15;;;;;;;16.40;9.40;;;;;;;;;;4952453;28;20039;-75
2022/01/17 02:10:41;;;;;;;19.35;10.48;;;;;;;;;;4964133;28;20037;-75
2022/01/17 02:13:08;;;;;;;17.88;9.00;;;;;;;;;;4980742;28;20046;-76
2022/01/17 02:15:36;;;;;;;19.67;9.43;;;;;;;;;;4968084;28;20491;-75
2022/01/17 02:18:02;;;;;;;16.77;9.40;;;;;;;;;;4967745;28;20069;-75
2022/01/17 02:20:42;;;;;;;17.17;9.30;;;;;;;;;;4967441;28;20504;-75
2022/01/17 02:23:09;;;;;;;20.73;10.10;;;;;;;;;;4935489;28;20047;-75
2022/01/17 02:25:36;;;;;;;19.30;9.77;;;;;;;;;;4965674;28;20055;-75
2022/01/17 02:28:03;;;;;;;19.30;9.50;;;;;;;;;;4965994;28;20035;-75
2022/01/17 02:30:32;;;;;;;16.83;9.45;;;;;;;;;;4962882;28;20766;-75
2022/01/17 02:33:02;;;;;;;15.00;8.93;;;;;;;;;;4962722;28;20043;-75
2022/01/17 02:35:28;;;;;;;18.33;9.50;;;;;;;;;;4967491;28;20053;-74
2022/01/17 02:37:56;;;;;;;18.83;9.52;;;;;;;;;;4971948;28;20054;-74
2022/01/17 02:40:23;;;;;;;16.30;8.80;;;;;;;;;;4986640;28;20054;-75
2022/01/17 02:42:51;;;;;;;17.83;9.02;;;;;;;;;;4986879;28;20518;-75
2022/01/17 02:45:32;;;;;;;17.75;8.75;;;;;;;;;;4986549;28;20046;-75
2022/01/17 02:47:59;;;;;;;17.15;8.25;;;;;;;;;;4986798;28;20058;-75
2022/01/17 02:50:26;;;;;;;16.67;9.10;;;;;;;;;;4965839;28;20047;-75
2022/01/17 02:52:56;;;;;;;17.88;8.95;;;;;;;;;;4985705;28;20053;-75
2022/01/17 02:55:22;;;;;;;15.85;8.45;;;;;;;;;;4987071;28;20038;-75
2022/01/17 02:57:49;;;;;;;16.02;8.43;;;;;;;;;;4986588;28;20185;-75
2022/01/17 03:00:15;;;;;;;15.65;8.45;;;;;;;;;;4986600;28;20064;-74
2022/01/17 03:02:42;;;;;;;16.88;8.18;;;;;;;;;;4984650;28;20514;-74
2022/01/17 03:05:09;;;;;;;17.65;8.55;;;;;;;;;;4986714;28;20054;-74
2022/01/17 03:07:35;;;;;;;16.63;8.45;;;;;;;;;;4986979;28;20061;-74
2022/01/17 03:10:08;;;;;;;17.13;8.25;;;;;;;;;;4986831;28;20698;-74
2022/01/17 03:12:34;;;;;;;17.35;8.82;;;;;;;;;;4985953;28;20581;-76
2022/01/17 03:15:00;;;;;;;17.67;8.68;;;;;;;;;;4987410;28;20066;-76
2022/01/17 03:17:26;;;;;;;19.58;9.35;;;;;;;;;;4986848;28;20093;-76
2022/01/17 03:19:52;;;;;;;16.00;7.97;;;;;;;;;;4985828;28;20077;-76
2022/01/17 03:22:17;;;;;;;18.52;9.05;;;;;;;;;;4967456;28;20043;-76
2022/01/17 03:24:43;;;;;;;18.85;8.85;;;;;;;;;;4962175;28;20469;-75
2022/01/17 03:27:09;;;;;;;17.42;8.80;;;;;;;;;;4965393;28;20138;-76
2022/01/17 03:29:35;;;;;;;16.10;8.27;;;;;;;;;;4966451;28;20074;-74
2022/01/17 03:32:01;;;;;;;14.95;7.90;;;;;;;;;;4965306;28;20051;-75
2022/01/17 03:34:27;;;;;;;18.05;9.43;;;;;;;;;;4943109;28;20044;-75
2022/01/17 03:36:53;;;;;;;17.48;9.15;;;;;;;;;;4964809;28;20094;-74
2022/01/17 03:39:19;;;;;;;19.05;8.75;;;;;;;;;;4965321;28;20034;-76
2022/01/17 03:41:45;;;;;;;15.63;8.10;;;;;;;;;;4964343;28;20081;-76
2022/01/17 03:44:11;;;;;;;15.45;8.43;;;;;;;;;;4961296;28;20041;-76
2022/01/17 03:46:37;;;;;;;16.88;9.57;;;;;;;;;;4960142;28;20090;-74
2022/01/17 03:49:03;;;;;;;17.77;8.30;;;;;;;;;;4965279;28;20477;-75
2022/01/17 03:51:30;;;;;;;16.65;8.23;;;;;;;;;;4963887;28;20050;-75
2022/01/17 03:53:56;;;;;;;16.02;8.10;;;;;;;;;;4966495;28;20035;-75
2022/01/17 03:56:21;;;;;;;16.98;8.90;;;;;;;;;;4947514;28;20503;-74
2022/01/17 03:58:49;;;;;;;19.02;7.88;;;;;;;;;;4966988;28;20066;-74
2022/01/17 04:01:15;;;;;;;17.90;8.50;;;;;;;;;;4964672;28;20050;-76
2022/01/17 04:03:41;;;;;;;16.73;8.68;;;;;;;;;;4965357;28;20046;-75
2022/01/17 04:06:06;;;;;;;15.75;7.90;;;;;;;;;;4966750;28;20105;-76
2022/01/17 04:08:34;;;;;;;18.38;8.48;;;;;;;;;;4966378;28;20058;-75
2022/01/17 04:11:00;;;;;;;15.00;8.07;;;;;;;;;;4966670;28;20034;-75
2022/01/17 04:13:26;;;;;;;16.23;8.25;;;;;;;;;;4954684;28;20035;-76
2022/01/17 04:15:52;;;;;;;15.80;8.13;;;;;;;;;;4951401;28;20031;-75
2022/01/17 04:18:23;;;;;;;14.45;7.32;;;;;;;;;;4979963;28;20498;-75
2022/01/17 04:20:49;;;;;;;13.10;7.32;;;;;;;;;;4965804;28;20056;-75
2022/01/17 04:23:15;;;;;;;13.90;6.82;;;;;;;;;;4946339;29;20050;-76
2022/01/17 04:25:42;;;;;;;18.08;8.18;;;;;;;;;;4968593;28;20081;-75
2022/01/17 04:28:10;;;;;;;13.73;7.75;;;;;;;;;;4972676;28;20038;-75
2022/01/17 04:30:37;;;;;;;15.18;8.20;;;;;;;;;;4965418;28;20673;-75
2022/01/17 04:33:04;;;;;;;12.98;7.25;;;;;;;;;;4975169;28;20051;-75
2022/01/17 04:35:30;;;;;;;18.23;8.60;;;;;;;;;;4964389;28;20150;-76
2022/01/17 04:38:07;;;;;;;15.35;7.72;;;;;;;;;;4965660;28;20046;-76
2022/01/17 04:40:39;;;;;;;15.15;7.75;;;;;;;;;;4966175;28;20523;-75
2022/01/17 04:43:19;;;;;;;;;;;;;;;;;;4966101;28;20043;-74
2022/01/17 04:45:47;;;;;;;15.32;7.50;;;;;;;;;;4964638;28;19918;-74
2022/01/17 04:48:13;;;;;;;12.43;7.18;;;;;;;;;;4981143;28;20057;-74
2022/01/17 04:50:39;;;;;;;14.55;7.25;;;;;;;;;;4965701;28;20470;-74
2022/01/17 04:53:07;;;;;;;12.88;7.18;;;;;;;;;;4965070;28;20046;-76
2022/01/17 04:55:33;;;;;;;15.02;7.78;;;;;;;;;;4964100;28;20059;-74
2022/01/17 04:57:59;;;;;;;13.55;6.95;;;;;;;;;;4963952;28;20400;-76
2022/01/17 05:00:26;;;;;;;13.23;7.07;;;;;;;;;;4961301;28;20119;-76
2022/01/17 05:02:53;;;;;;;13.13;7.35;;;;;;;;;;4928282;29;20051;-74
2022/01/17 05:05:20;;;;;;;13.68;7.38;;;;;;;;;;4965792;28;20053;-74
2022/01/17 05:07:46;;;;;;;13.30;6.97;;;;;;;;;;4985161;28;20715;-76
2022/01/17 05:10:15;;;;;;;12.95;6.97;;;;;;;;;;4967588;28;20366;-76
2022/01/17 05:12:42;;;;;;;12.82;6.75;;;;;;;;;;4984462;28;20038;-75
2022/01/17 05:15:17;;;;;;;14.48;7.45;;;;;;;;;;4984115;28;20053;-76
2022/01/17 05:17:54;;;;;;;12.43;7.10;;;;;;;;;;4984466;28;20050;-76
2022/01/17 05:20:20;;;;;;;13.20;6.70;;;;;;;;;;4985636;28;20389;-76
2022/01/17 05:22:46;;;;;;;13.93;6.65;;;;;;;;;;4971612;28;20050;-76
2022/01/17 05:25:13;;;;;;;14.60;7.20;;;;;;;;;;4945011;28;20058;-76
2022/01/17 05:27:39;;;;;;;14.00;7.18;;;;;;;;;;4958384;28;20129;-76
2022/01/17 05:30:13;;;;;;;13.68;7.40;;;;;;;;;;4952081;28;20497;-76
2022/01/17 05:32:39;;;;;;;15.50;7.80;;;;;;;;;;4928497;29;20042;-75
2022/01/17 05:35:06;;;;;;;13.70;7.35;;;;;;;;;;4946614;28;20047;-75
2022/01/17 05:37:32;;;;;;;13.90;7.65;;;;;;;;;;4960246;28;20054;-75
2022/01/17 05:39:58;;;;;;;19.55;9.93;;;;;;;;;;4946883;28;20047;-75
2022/01/17 05:42:24;;;;;;;13.18;7.15;;;;;;;;;;4965824;28;20054;-75
2022/01/17 05:44:51;;;;;;;14.05;7.75;;;;;;;;;;4966663;28;20038;-75
2022/01/17 05:47:17;;;;;;;15.25;7.80;;;;;;;;;;4954012;28;20749;-75
2022/01/17 05:49:43;;;;;;;13.50;7.68;;;;;;;;;;4936659;29;20039;-75
2022/01/17 05:52:10;;;;;;;15.40;8.10;;;;;;;;;;4956442;28;20405;-75
2022/01/17 05:54:38;;;;;;;16.77;7.60;;;;;;;;;;4965801;28;20515;-75
2022/01/17 05:57:04;;;;;;;14.82;7.45;;;;;;;;;;4965073;28;20050;-75
2022/01/17 05:59:30;;;;;;;16.42;7.93;;;;;;;;;;4965553;28;20038;-75
2022/01/17 06:01:56;;;;;;;13.85;7.00;;;;;;;;;;4946506;28;20078;-75
2022/01/17 06:04:22;;;;;;;16.40;7.47;;;;;;;;;;4934122;29;20075;-75
2022/01/17 06:06:48;;;;;;;15.32;7.68;;;;;;;;;;4942284;29;20328;-75
2022/01/17 06:09:15;;;;;;;13.90;7.28;;;;;;;;;;4898203;29;20109;-75
2022/01/17 06:11:41;;;;;;;14.77;7.57;;;;;;;;;;4921564;29;20517;-75
2022/01/17 06:14:08;;;;;;;14.32;7.35;;;;;;;;;;4935222;28;20426;-75
2022/01/17 06:16:36;;;;;;;12.55;7.43;;;;;;;;;;4933888;29;20501;-75
2022/01/17 06:19:03;;;;;;;12.43;7.07;;;;;;;;;;4932507;29;20727;-76
2022/01/17 06:21:29;;;;;;;12.43;6.90;;;;;;;;;;4933234;29;20031;-76
2022/01/17 06:23:55;;;;;;;11.45;6.95;;;;;;;;;;4936966;29;20071;-76
2022/01/17 06:26:21;;;;;;;12.85;6.75;;;;;;;;;;4938937;28;20078;-75
2022/01/17 06:28:47;;;;;;;13.75;6.75;;;;;;;;;;4941863;29;20793;-74
2022/01/17 06:31:13;;;;;;;11.57;6.78;;;;;;;;;;4911091;29;20036;-75
2022/01/17 06:33:39;;;;;;;12.10;6.45;;;;;;;;;;4922371;28;20071;-75
2022/01/17 06:36:05;;;;;;;12.13;6.32;;;;;;;;;;4936665;28;20139;-75
2022/01/17 06:38:31;;;;;;;10.25;5.90;;;;;;;;;;4965534;28;20492;-75
2022/01/17 06:40:57;;;;;;;10.65;6.13;;;;;;;;;;4955477;28;20081;-75
2022/01/17 06:43:23;;;;;;;21.38;11.70;;;;;;;;;;4954462;28;20401;-75
2022/01/17 06:45:48;;;;;;;22.15;11.77;;;;;;;;;;4939404;28;20052;-75
2022/01/17 06:48:14;;;;;;;14.75;7.90;;;;;;;;;;4948514;28;20051;-75
2022/01/17 06:50:40;;;;;;;9.98;5.97;;;;;;;;;;4945109;29;20031;-75
2022/01/17 06:53:06;;;;;;;10.13;6.13;;;;;;;;;;4957124;28;20141;-75
2022/01/17 06:55:32;;;;;;;11.52;5.97;;;;;;;;;;4960763;28;20521;-75
2022/01/17 06:57:58;;;;;;;10.40;5.45;;;;;;;;;;4946776;28;20047;-73
2022/01/17 07:00:24;;;;;;;9.73;5.38;;;;;;;;;;4945196;28;20039;-73
2022/01/17 07:02:50;;;;;;;10.50;5.40;;;;;;;;;;4939219;28;20509;-75
2022/01/17 07:05:16;;;;;;;12.30;5.85;;;;;;;;;;4916186;28;20052;-71
2022/01/17 07:07:43;;;;;;;10.55;5.72;;;;;;;;;;4904235;29;20502;-74
2022/01/17 07:10:09;;;;;;;10.65;6.20;;;;;;;;;;4884905;29;20031;-73
2022/01/17 07:12:36;;;;;;;20.88;10.13;;;;;;;;;;4931877;28;20122;-75
2022/01/17 07:15:07;;;;;;;16.75;8.32;;;;;;;;;;4948857;28;20047;-74
2022/01/17 07:17:34;;;;;;;;;;;;;;;;;;4955987;28;20057;-72
2022/01/17 07:20:00;;;;;;;12.30;6.30;;;;;;;;;;4960698;28;20313;-74
2022/01/17 07:22:27;;;;;;;11.80;6.07;;;;;;;;;;4973849;28;20034;-74
2022/01/17 07:24:55;;;;;;;10.10;5.72;;;;;;;;;;4958085;28;20042;-73
2022/01/17 07:27:21;;;;;;;10.75;6.22;;;;;;;;;;4979164;28;20037;-74
2022/01/17 07:29:47;;;;;;;12.60;6.53;;;;;;;;;;4961246;28;20044;-75
2022/01/17 07:32:12;;;;;;;12.05;6.32;;;;;;;;;;4981149;28;20492;-75
2022/01/17 07:34:38;;;;;;;11.93;6.45;;;;;;;;;;4962223;28;20081;-76
2022/01/17 07:37:04;;;;;;;12.45;6.28;;;;;;;;;;4957050;28;20053;-74
2022/01/17 07:39:30;;;;;;;11.60;6.00;;;;;;;;;;4973198;28;20074;-74
2022/01/17 07:41:56;;;;;;;13.10;7.15;;;;;;;;;;4976296;28;20023;-74
2022/01/17 07:44:23;;;;;;;15.00;8.75;;;;;;;;;;4972587;28;20050;-74
2022/01/17 07:46:54;;;;;;;14.82;8.20;;;;;;;;;;4959199;28;20035;-72
2022/01/17 07:49:19;;;;;;;13.57;6.30;;;;;;;;;;4962934;28;20041;-73
2022/01/17 07:51:48;;;;;;;11.20;6.05;;;;;;;;;;4953333;28;20027;-75
2022/01/17 07:54:15;;;;;;;9.75;6.22;;;;;;;;;;4967430;28;20050;-75
2022/01/17 07:56:43;;;;;;;10.70;6.00;;;;;;;;;;4959010;28;20049;-75
2022/01/17 07:59:10;;;;;;;12.45;6.50;;;;;;;;;;4958157;28;20480;-76
2022/01/17 08:01:37;;;;;;;11.80;6.85;;;;;;;;;;4959979;28;20052;-77
2022/01/17 08:04:04;;;;;;;12.40;6.43;;;;;;;;;;4939606;28;20039;-76
2022/01/17 08:06:32;;;;;;;12.60;6.72;;;;;;;;;;4951947;28;20480;-76
2022/01/17 08:08:58;;;;;;;10.88;5.90;;;;;;;;;;4965615;28;20034;-76
2022/01/17 08:11:24;;;;;;;12.88;6.13;;;;;;;;;;4972795;28;20034;-76
2022/01/17 08:13:50;;;;;;;12.38;6.60;;;;;;;;;;4974109;28;20376;-75
2022/01/17 08:16:16;;;;;;;11.20;6.18;;;;;;;;;;4964976;28;20045;-75
2022/01/17 08:18:42;;;;;;;10.48;5.75;;;;;;;;;;4966389;28;20142;-76
2022/01/17 08:21:08;;;;;;;10.50;5.65;;;;;;;;;;4977720;28;20066;-75
2022/01/17 08:23:36;;;;;;;11.98;5.90;;;;;;;;;;4975134;28;20046;-75
2022/01/17 08:26:03;;;;;;;24.05;11.85;;;;;;;;;;4969693;28;20614;-75
2022/01/17 08:28:29;;;;;;;14.05;6.93;;;;;;;;;;4968112;28;20050;-74
2022/01/17 08:30:54;;;;;;;11.73;6.43;;;;;;;;;;4976697;28;20501;-74
2022/01/17 08:33:22;;;;;;;11.55;5.38;;;;;;;;;;4967008;28;20086;-74
2022/01/17 08:35:48;;;;;;;10.35;5.43;;;;;;;;;;4967199;28;20034;-75
2022/01/17 08:38:14;;;;;;;10.80;6.18;;;;;;;;;;4966260;28;20528;-74
2022/01/17 08:40:40;;;;;;;10.07;5.50;;;;;;;;;;4965973;28;20477;-74
2022/01/17 08:43:07;;;;;;;10.95;5.68;;;;;;;;;;4971378;28;20074;-75
2022/01/17 08:45:33;;;;;;;9.60;5.30;;;;;;;;;;4965914;28;20053;-73
2022/01/17 08:48:00;;;;;;;12.15;5.72;;;;;;;;;;4980459;28;20042;-76
2022/01/17 08:50:27;;;;;;;10.35;5.40;;;;;;;;;;4973017;28;20054;-75
2022/01/17 08:52:52;;;;;;;10.75;5.50;;;;;;;;;;4969542;28;21109;-77
2022/01/17 08:55:19;;;;;;;10.00;6.05;;;;;;;;;;4978281;28;20038;-79
2022/01/17 08:57:45;;;;;;;10.82;5.50;;;;;;;;;;4970095;28;20050;-76
2022/01/17 09:00:17;;;;;;;11.70;5.15;;;;;;;;;;4975544;28;20053;-76
2022/01/17 09:02:43;;;;;;;9.38;5.60;;;;;;;;;;4972241;28;20079;-76
2022/01/17 09:05:09;;;;;;;10.65;5.22;;;;;;;;;;4968291;28;20046;-78
2022/01/17 09:07:35;;;;;;;11.23;5.40;;;;;;;;;;4963664;28;20484;-77
2022/01/17 09:10:01;;;;;;;18.50;9.32;;;;;;;;;;4962754;28;20043;-77
2022/01/17 09:12:27;;;;;;;11.50;6.07;;;;;;;;;;4969556;28;20042;-78
2022/01/17 09:14:53;;;;;;;11.57;5.70;;;;;;;;;;4953996;28;20051;-77
2022/01/17 09:17:19;;;;;;;10.10;4.93;;;;;;;;;;4960182;28;20102;-73
2022/01/17 09:19:46;;;;;;;9.63;5.45;;;;;;;;;;4977587;28;20046;-74
2022/01/17 09:22:12;;;;;;;9.07;5.00;;;;;;;;;;4971661;28;20473;-73
2022/01/17 09:24:39;;;;;;;10.57;5.43;;;;;;;;;;4978524;28;20050;-74
2022/01/17 09:27:07;;;;;;;10.00;5.30;;;;;;;;;;4963485;28;20050;-74
2022/01/17 09:29:34;;;;;;;10.07;5.40;;;;;;;;;;4969250;28;20068;-71
2022/01/17 09:32:00;;;;;;;8.60;5.18;;;;;;;;;;4969651;28;20043;-71
2022/01/17 09:34:27;;;;;;;9.18;5.30;;;;;;;;;;4978569;28;20078;-73
2022/01/17 09:36:53;;;;;;;11.70;5.63;;;;;;;;;;4973376;28;20050;-75
2022/01/17 09:39:20;;;;;;;9.63;5.38;;;;;;;;;;4967620;28;20046;-74
2022/01/17 09:41:46;;;;;;;10.90;5.53;;;;;;;;;;4975546;28;20081;-73
2022/01/17 09:44:12;;;;;;;10.32;5.55;;;;;;;;;;4971518;28;20039;-74
2022/01/17 09:46:45;;;;;;;10.15;5.20;;;;;;;;;;4982201;28;20828;-74
2022/01/17 09:49:54;;;;;;;9.95;5.53;;;;;;;;;;4982313;28;20027;-73
2022/01/17 09:54:43;;;;;;;11.25;5.53;;;;;;;;;;4965007;28;20464;-75
2022/01/17 09:57:11;;;;;;;10.60;5.47;;;;;;;;;;4967867;28;20481;-75
2022/01/17 09:59:39;;;;;;;9.90;5.18;;;;;;;;;;4971384;28;20070;-75
2022/01/17 10:02:06;;;;;;;12.15;5.95;;;;;;;;;;4985885;28;20460;-76
2022/01/17 10:04:33;;;;;;;9.48;5.03;;;;;;;;;;4987738;28;20046;-75
2022/01/17 10:07:00;;;;;;;10.52;5.70;;;;;;;;;;4984967;28;20412;-76
2022/01/17 10:09:27;;;;;;;10.57;6.00;;;;;;;;;;4972806;28;20056;-76
2022/01/17 10:12:05;;;;;;;10.02;5.03;;;;;;;;;;4973142;28;20026;-75
2022/01/17 10:14:38;;;;;;;11.00;5.80;;;;;;;;;;4967875;28;20677;-77
2022/01/17 10:17:13;;;;;;;9.95;5.03;;;;;;;;;;4980748;28;20480;-74
2022/01/17 10:19:40;;;;;;;9.70;5.70;;;;;;;;;;4970572;28;20042;-74
2022/01/17 10:22:13;;;;;;;14.45;7.20;;;;;;;;;;4960900;28;20057;-74
2022/01/17 10:35:29;;;;;;;10.43;5.15;;;;;;;;;;4955972;28;20034;-74
2022/01/17 10:38:18;;;;;;;11.70;6.10;;;;;;;;;;4955649;28;20050;-75
2022/01/17 10:40:51;;;;;;;9.57;5.13;;;;;;;;;;4974017;28;20050;-74
2022/01/17 10:43:34;;;;;;;9.68;5.50;;;;;;;;;;4959228;28;20046;-73
2022/01/17 10:46:06;;;;;;;8.63;4.40;;;;;;;;;;4975258;28;20066;-76
2022/01/17 10:48:35;;;;;;;10.20;5.15;;;;;;;;;;4950750;28;20043;-74
2022/01/17 10:51:03;;;;;;;11.63;5.45;;;;;;;;;;4967357;28;20046;-77
2022/01/17 10:53:29;;;;;;;10.10;5.18;;;;;;;;;;4983430;28;20042;-77
2022/01/17 10:55:57;;;;;;;10.27;5.18;;;;;;;;;;4986794;28;20054;-77
2022/01/17 10:58:29;;;;;;;8.82;4.90;;;;;;;;;;4969914;28;20472;-76
2022/01/17 11:00:58;;;;;;;9.27;4.90;;;;;;;;;;4951642;28;20058;-76
2022/01/17 11:03:30;;;;;;;11.45;4.93;;;;;;;;;;4963305;28;20484;-76
2022/01/17 11:06:00;;;;;;;10.45;4.95;;;;;;;;;;4949204;28;20043;-76
2022/01/17 11:08:28;;;;;;;11.40;5.72;;;;;;;;;;4920740;28;20048;-76
2022/01/17 11:10:56;;;;;;;9.63;5.00;;;;;;;;;;4949818;28;20061;-76
2022/01/17 11:13:27;;;;;;;10.93;5.15;;;;;;;;;;4984172;28;20436;-75
2022/01/17 11:16:11;;;;;;;;;;;;;;;;;;4975120;28;20043;-74
2022/01/17 11:18:41;;;;;;;10.43;4.65;;;;;;;;;;4967612;28;19940;-75
2022/01/17 11:21:14;;;;;;;9.07;4.70;;;;;;;;;;4974387;28;20397;-74
2022/01/17 11:23:47;;;;;;;9.63;4.95;;;;;;;;;;4980188;28;20067;-74
2022/01/17 11:26:14;;;;;;;9.75;5.28;;;;;;;;;;4967598;28;20034;-73
2022/01/17 11:28:42;;;;;;;10.32;4.85;;;;;;;;;;4962797;28;20054;-74
2022/01/17 11:31:13;;;;;;;9.90;5.10;;;;;;;;;;4962947;28;20058;-74
2022/01/17 11:38:55;;;;;;;9.23;4.93;;;;;;;;;;5373468;23;20254;-73
2022/01/17 11:41:27;;;;;;;9.60;4.37;;;;;;;;;;4932663;28;20022;-75
2022/01/17 11:43:58;;;;;;;9.57;4.97;;;;;;;;;;4958451;28;20046;-75
2022/01/17 11:46:27;;;;;;;9.88;4.57;;;;;;;;;;4951467;28;20035;-74
2022/01/17 11:49:06;;;;;;;7.60;4.20;;;;;;;;;;4943375;28;20047;-75
2022/01/17 11:51:45;;;;;;;8.68;4.70;;;;;;;;;;4955348;28;20042;-76
2022/01/17 11:54:14;;;;;;;7.93;4.20;;;;;;;;;;4941103;28;20042;-75
2022/01/17 11:56:45;;;;;;;8.80;4.22;;;;;;;;;;4993478;28;20034;-75
2022/01/17 11:59:36;;;;;;;9.40;4.53;;;;;;;;;;4975124;28;20585;-75
2022/01/17 12:02:32;;;;;;;9.23;4.70;;;;;;;;;;4986401;28;20503;-75
2022/01/17 12:05:06;;;;;;;8.20;3.92;;;;;;;;;;4961887;28;20054;-75
2022/01/17 12:07:54;;;;;;;10.18;4.68;;;;;;;;;;4965095;28;20099;-78
2022/01/17 12:10:27;;;;;;;7.50;3.75;;;;;;;;;;4966802;28;20049;-77
2022/01/17 12:13:11;;;;;;;8.82;4.93;;;;;;;;;;4979384;28;20498;-78
2022/01/17 12:16:06;;;;;;;10.68;4.75;;;;;;;;;;4975184;28;20057;-73
2022/01/17 12:18:34;;;;;;;8.57;3.92;;;;;;;;;;4988326;28;20514;-74
2022/01/17 12:21:20;;;;;;;8.63;4.53;;;;;;;;;;5003268;28;20399;-75
2022/01/17 12:23:49;;;;;;;7.78;4.20;;;;;;;;;;5002458;28;20036;-77
2022/01/17 12:26:32;;;;;;;8.85;4.78;;;;;;;;;;4960289;28;20050;-74
2022/01/17 12:28:59;;;;;;;8.60;4.50;;;;;;;;;;4999720;28;20030;-74
2022/01/17 12:31:41;;;;;;;8.55;4.18;;;;;;;;;;4994162;28;20027;-74
2022/01/17 12:34:23;;;;;;;10.48;4.78;;;;;;;;;;4992542;28;20038;-75
2022/01/17 12:36:52;;;;;;;;;;;;;;;;;;4967620;28;20494;-75
2022/01/17 12:39:21;;;;;;;8.55;4.40;;;;;;;;;;4994025;28;19921;-75
2022/01/17 12:41:59;;;;;;;9.32;4.40;;;;;;;;;;4972958;28;20566;-75
2022/01/17 12:44:28;;;;;;;8.32;4.30;;;;;;;;;;4971160;28;20034;-77
2022/01/17 12:46:58;;;;;;;8.93;4.13;;;;;;;;;;4989086;28;20589;-77
2022/01/17 12:49:25;;;;;;;9.95;4.40;;;;;;;;;;4974959;28;20061;-75
2022/01/17 12:51:53;;;;;;;8.55;4.30;;;;;;;;;;4974661;28;20046;-75
2022/01/17 12:54:25;;;;;;;9.27;4.93;;;;;;;;;;4980323;28;20038;-78
2022/01/17 12:56:53;;;;;;;10.20;4.82;;;;;;;;;;4979341;28;20070;-77
2022/01/17 12:59:20;;;;;;;8.75;4.60;;;;;;;;;;5000620;28;20036;-78
2022/01/17 13:01:51;;;;;;;10.38;4.80;;;;;;;;;;4994004;28;20030;-77
2022/01/17 13:04:18;;;;;;;9.40;5.03;;;;;;;;;;5000310;28;20030;-77
2022/01/17 13:06:47;;;;;;;10.35;5.05;;;;;;;;;;4973835;28;20046;-79
2022/01/17 13:09:16;;;;;;;8.98;5.00;;;;;;;;;;4981796;28;20049;-79
2022/01/17 13:11:45;;;;;;;7.57;4.63;;;;;;;;;;4978952;28;20498;-79
2022/01/17 13:14:14;;;;;;;8.93;4.82;;;;;;;;;;4958897;28;20056;-77
2022/01/17 13:16:40;;;;;;;11.50;5.28;;;;;;;;;;4953110;28;20050;-77
2022/01/17 13:19:11;;;;;;;11.18;5.57;;;;;;;;;;4994336;28;20038;-79
2022/01/17 13:21:40;;;;;;;10.38;4.70;;;;;;;;;;4993115;28;20045;-77
2022/01/17 13:24:24;;;;;;;8.88;4.97;;;;;;;;;;4982966;28;20419;-77
2022/01/17 13:27:10;;;;;;;9.63;4.85;;;;;;;;;;4966023;28;20488;-76
2022/01/17 13:29:40;;;;;;;10.00;5.72;;;;;;;;;;4982162;28;20054;-76
2022/01/17 13:32:09;;;;;;;10.05;5.15;;;;;;;;;;4983045;28;20427;-75
2022/01/17 13:34:35;;;;;;;10.43;5.88;;;;;;;;;;4988190;28;20047;-75
2022/01/17 13:37:05;;;;;;;9.75;5.72;;;;;;;;;;4974184;28;20068;-74
2022/01/17 13:39:30;;;;;;;12.18;6.00;;;;;;;;;;4974939;28;20050;-77
2022/01/17 13:42:02;;;;;;;9.10;5.25;;;;;;;;;;4968944;28;20043;-77
2022/01/17 13:44:33;;;;;;;9.73;5.50;;;;;;;;;;4977915;28;20039;-78
2022/01/17 13:47:05;;;;;;;11.23;5.95;;;;;;;;;;4950838;28;20043;-71
2022/01/17 13:49:42;;;;;;;12.73;5.50;;;;;;;;;;4920014;28;20563;-72
2022/01/17 14:11:53;;;;;;;9.82;5.57;;;;;;;;;;5867506;23;20042;-75
2022/01/17 14:16:13;;;;;;;13.60;8.27;;;;;;;;;;5199854;22;24486;-75
2022/01/17 14:18:50;;;;;;;12.52;7.03;;;;;;;;;;5089044;28;20048;-75
2022/01/17 14:21:42;;;;;;;11.65;6.00;;;;;;;;;;5095094;28;20420;-76
2022/01/17 14:24:18;;;;;;;12.82;6.43;;;;;;;;;;5093985;28;20377;-78
2022/01/17 14:26:49;;;;;;;13.35;7.15;;;;;;;;;;5084419;28;20055;-79
2022/01/17 14:29:16;;;;;;;10.90;6.78;;;;;;;;;;5087197;28;20583;-78
2022/01/17 14:31:46;;;;;;;15.18;9.13;;;;;;;;;;5092027;28;20036;-80
2022/01/17 14:34:24;;;;;;;13.93;6.65;;;;;;;;;;5097974;28;20043;-79
2022/01/17 14:37:15;;;;;;;13.65;6.65;;;;;;;;;;5068867;28;20063;-78
2022/01/17 14:40:10;;;;;;;13.95;7.20;;;;;;;;;;5101771;28;20044;-77
2022/01/17 14:42:40;;;;;;;12.70;6.57;;;;;;;;;;5076051;28;20397;-80
2022/01/17 14:45:14;;;;;;;14.45;6.93;;;;;;;;;;5096286;28;20051;-77
2022/01/17 14:47:47;;;;;;;13.07;7.25;;;;;;;;;;5086439;28;20048;-77
2022/01/17 14:50:14;;;;;;;13.48;7.20;;;;;;;;;;5097511;28;20626;-78
2022/01/17 14:52:42;;;;;;;11.75;6.78;;;;;;;;;;5085829;28;20070;-79
2022/01/17 15:00:46;;;;;;;12.00;6.60;;;;;;;;;;5087563;28;20040;-78
2022/01/17 15:03:18;;;;;;;15.55;7.25;;;;;;;;;;5102599;28;20036;-79
2022/01/17 15:05:45;;;;;;;14.02;6.88;;;;;;;;;;5095003;28;20044;-79
2022/01/17 15:08:13;;;;;;;14.50;7.88;;;;;;;;;;5079292;28;20035;-79
2022/01/17 15:10:39;;;;;;;17.40;7.43;;;;;;;;;;5085326;28;20048;-79
2022/01/17 15:13:07;;;;;;;13.13;6.78;;;;;;;;;;5087752;28;20040;-79
2022/01/17 15:15:35;;;;;;;12.10;6.32;;;;;;;;;;5095569;28;20035;-79
2022/01/17 15:18:06;;;;;;;12.00;6.60;;;;;;;;;;5095186;28;20042;-79
2022/01/17 15:20:34;;;;;;;13.00;7.15;;;;;;;;;;5087974;28;20091;-77
2022/01/17 15:23:01;;;;;;;13.50;7.07;;;;;;;;;;5087137;28;20028;-78
2022/01/17 15:25:27;;;;;;;12.48;6.78;;;;;;;;;;5092696;28;20051;-78
2022/01/17 15:27:53;;;;;;;14.45;6.72;;;;;;;;;;5080157;28;20393;-78
2022/01/17 15:30:20;;;;;;;12.43;6.43;;;;;;;;;;5074672;28;20059;-78
2022/01/17 15:32:48;;;;;;;12.38;6.63;;;;;;;;;;5086173;28;20051;-75